sensor_id;sensor_type;location;lat;lon;timestamp;pressure;altitude;pressure_sealevel;temperature;humidity
31771;BME280;18343;50.152;8.182;2023-11-18T00:00:51;98256.19;;;4.60;100.00
31771;BME280;18343;50.152;8.182;2023-11-18T00:03:38;98260.22;;;4.54;100.00
31771;BME280;18343;50.152;8.182;2023-11-18T00:06:22;98265.13;;;4.49;100.00
31771;BME280;18343;50.152;8.182;2023-11-18T00:09:07;98259.78;;;4.49;100.00
31771;BME280;18343;50.152;8.182;2023-11-18T00:11:52;98256.28;;;4.49;100.00
31771;BME280;18343;50.152;8.182;2023-11-18T00:14:36;98254.16;;;4.42;100.00
31771;BME280;18343;50.152;8.182;2023-11-18T00:17:21;98250.63;;;4.32;100.00
31771;BME280;18343;50.152;8.182;2023-11-18T00:20:08;98252.44;;;4.32;100.00
31771;BME280;18343;50.152;8.182;2023-11-18T00:22:53;98253.16;;;4.34;100.00
31771;BME280;18343;50.152;8.182;2023-11-18T00:25:38;98256.41;;;4.37;100.00
31771;BME280;18343;50.152;8.182;2023-11-18T00:28:22;98263.25;;;4.40;100.00
31771;BME280;18343;50.152;8.182;2023-11-18T00:31:07;98255.81;;;4.34;100.00
31771;BME280;18343;50.152;8.182;2023-11-18T00:33:52;98255.22;;;4.30;100.00
31771;BME280;18343;50.152;8.182;2023-11-18T00:36:38;98251.72;;;4.30;100.00
31771;BME280;18343;50.152;8.182;2023-11-18T00:39:22;98250.19;;;4.27;100.00
31771;BME280;18343;50.152;8.182;2023-11-18T00:42:07;98255.75;;;4.24;100.00
31771;BME280;18343;50.152;8.182;2023-11-18T00:44:51;98263.16;;;4.21;100.00
31771;BME280;18343;50.152;8.182;2023-11-18T00:47:36;98259.34;;;4.14;100.00
31771;BME280;18343;50.152;8.182;2023-11-18T00:50:21;98268.44;;;4.11;100.00
31771;BME280;18343;50.152;8.182;2023-11-18T00:53:06;98264.88;;;4.01;100.00
31771;BME280;18343;50.152;8.182;2023-11-18T00:55:51;98262.75;;;3.95;100.00
31771;BME280;18343;50.152;8.182;2023-11-18T00:58:35;98265.16;;;3.98;100.00
31771;BME280;18343;50.152;8.182;2023-11-18T01:01:20;98275.41;;;4.02;100.00
31771;BME280;18343;50.152;8.182;2023-11-18T01:04:05;98268.97;;;4.05;100.00
31771;BME280;18343;50.152;8.182;2023-11-18T01:06:49;98265.94;;;4.10;100.00
31771;BME280;18343;50.152;8.182;2023-11-18T01:09:35;98269.84;;;4.15;100.00
31771;BME280;18343;50.152;8.182;2023-11-18T01:12:20;98268.44;;;4.11;100.00
31771;BME280;18343;50.152;8.182;2023-11-18T01:15:05;98270.13;;;4.12;100.00
31771;BME280;18343;50.152;8.182;2023-11-18T01:17:50;98270.66;;;4.06;100.00
31771;BME280;18343;50.152;8.182;2023-11-18T01:20:35;98268.13;;;4.04;100.00
31771;BME280;18343;50.152;8.182;2023-11-18T01:23:19;98269.97;;;4.04;100.00
31771;BME280;18343;50.152;8.182;2023-11-18T01:26:06;98275.53;;;4.01;100.00
31771;BME280;18343;50.152;8.182;2023-11-18T01:28:51;98277.22;;;4.02;100.00
31771;BME280;18343;50.152;8.182;2023-11-18T01:31:35;98263.34;;;3.98;100.00
31771;BME280;18343;50.152;8.182;2023-11-18T01:34:20;98269.75;;;3.96;100.00
31771;BME280;18343;50.152;8.182;2023-11-18T01:37:05;98260.34;;;3.92;100.00
31771;BME280;18343;50.152;8.182;2023-11-18T01:39:50;98265.78;;;3.90;100.00
31771;BME280;18343;50.152;8.182;2023-11-18T01:42:36;98252.38;;;3.92;100.00
31771;BME280;18343;50.152;8.182;2023-11-18T01:45:20;98257.69;;;3.92;100.00
31771;BME280;18343;50.152;8.182;2023-11-18T01:48:05;98254.16;;;3.82;100.00
31771;BME280;18343;50.152;8.182;2023-11-18T01:50:51;98252.03;;;3.64;100.00
31771;BME280;18343;50.152;8.182;2023-11-18T01:53:37;98264.63;;;3.62;100.00
31771;BME280;18343;50.152;8.182;2023-11-18T01:56:22;98261.63;;;3.56;100.00
31771;BME280;18343;50.152;8.182;2023-11-18T01:59:09;98253.34;;;3.49;100.00
31771;BME280;18343;50.152;8.182;2023-11-18T02:01:53;98256.50;;;3.43;100.00
31771;BME280;18343;50.152;8.182;2023-11-18T02:04:38;98258.13;;;3.34;100.00
31771;BME280;18343;50.152;8.182;2023-11-18T02:07:23;98261.94;;;3.21;100.00
31771;BME280;18343;50.152;8.182;2023-11-18T02:10:08;98260.50;;;3.17;100.00
31771;BME280;18343;50.152;8.182;2023-11-18T02:13:00;98267.50;;;3.18;100.00
31771;BME280;18343;50.152;8.182;2023-11-18T02:15:49;98261.59;;;3.14;100.00
31771;BME280;18343;50.152;8.182;2023-11-18T02:18:35;98276.69;;;3.14;100.00
31771;BME280;18343;50.152;8.182;2023-11-18T02:21:22;98272.34;;;3.13;100.00
31771;BME280;18343;50.152;8.182;2023-11-18T02:24:08;98288.16;;;3.14;100.00
31771;BME280;18343;50.152;8.182;2023-11-18T02:26:56;98295.16;;;3.15;100.00
31771;BME280;18343;50.152;8.182;2023-11-18T02:29:42;98284.78;;;3.12;100.00
31771;BME280;18343;50.152;8.182;2023-11-18T02:32:31;98282.00;;;3.14;100.00
31771;BME280;18343;50.152;8.182;2023-11-18T02:35:24;98283.69;;;3.15;100.00
31771;BME280;18343;50.152;8.182;2023-11-18T02:38:10;98278.63;;;3.12;100.00
31771;BME280;18343;50.152;8.182;2023-11-18T02:40:58;98283.94;;;3.12;100.00
31771;BME280;18343;50.152;8.182;2023-11-18T02:43:47;98289.84;;;3.15;100.00
31771;BME280;18343;50.152;8.182;2023-11-18T02:46:33;98284.53;;;3.15;100.00
31771;BME280;18343;50.152;8.182;2023-11-18T02:49:18;98277.53;;;3.14;100.00
31771;BME280;18343;50.152;8.182;2023-11-18T02:52:03;98271.38;;;3.14;100.00
31771;BME280;18343;50.152;8.182;2023-11-18T02:54:48;98279.59;;;3.11;100.00
31771;BME280;18343;50.152;8.182;2023-11-18T02:57:32;98267.16;;;3.11;100.00
31771;BME280;18343;50.152;8.182;2023-11-18T03:00:19;98264.38;;;3.13;100.00
31771;BME280;18343;50.152;8.182;2023-11-18T03:03:04;98257.59;;;3.09;100.00
31771;BME280;18343;50.152;8.182;2023-11-18T03:05:48;98263.06;;;3.07;100.00
31771;BME280;18343;50.152;8.182;2023-11-18T03:08:33;98263.06;;;3.07;100.00
31771;BME280;18343;50.152;8.182;2023-11-18T03:11:18;98264.63;;;3.10;100.00
31771;BME280;18343;50.152;8.182;2023-11-18T03:14:02;98255.69;;;3.11;100.00
31771;BME280;18343;50.152;8.182;2023-11-18T03:16:48;98257.50;;;3.10;100.00
31771;BME280;18343;50.152;8.182;2023-11-18T03:19:33;98253.25;;;3.08;100.00
31771;BME280;18343;50.152;8.182;2023-11-18T03:22:17;98247.22;;;3.05;100.00
31771;BME280;18343;50.152;8.182;2023-11-18T03:25:02;98245.66;;;3.03;100.00
31771;BME280;18343;50.152;8.182;2023-11-18T03:27:47;98253.19;;;2.98;100.00
31771;BME280;18343;50.152;8.182;2023-11-18T03:30:31;98253.31;;;2.96;100.00
31771;BME280;18343;50.152;8.182;2023-11-18T03:33:17;98263.81;;;2.98;100.00
31771;BME280;18343;50.152;8.182;2023-11-18T03:36:03;98269.00;;;2.99;100.00
31771;BME280;18343;50.152;8.182;2023-11-18T03:38:48;98265.09;;;3.03;100.00
31771;BME280;18343;50.152;8.182;2023-11-18T03:41:33;98268.38;;;3.07;100.00
31771;BME280;18343;50.152;8.182;2023-11-18T03:44:17;98275.50;;;3.06;100.00
31771;BME280;18343;50.152;8.182;2023-11-18T03:47:02;98271.75;;;3.09;100.00
31771;BME280;18343;50.152;8.182;2023-11-18T03:49:48;98265.72;;;3.07;100.00
31771;BME280;18343;50.152;8.182;2023-11-18T03:52:32;98254.94;;;3.09;100.00
31771;BME280;18343;50.152;8.182;2023-11-18T03:55:17;98253.03;;;3.11;100.00
31771;BME280;18343;50.152;8.182;2023-11-18T03:58:02;98238.03;;;3.10;100.00
31771;BME280;18343;50.152;8.182;2023-11-18T04:00:46;98247.34;;;3.04;100.00
31771;BME280;18343;50.152;8.182;2023-11-18T04:03:31;98238.94;;;2.99;100.00
31771;BME280;18343;50.152;8.182;2023-11-18T04:06:17;98242.16;;;3.02;100.00
31771;BME280;18343;50.152;8.182;2023-11-18T04:09:02;98241.91;;;3.05;100.00
31771;BME280;18343;50.152;8.182;2023-11-18T04:11:47;98235.50;;;3.08;100.00
31771;BME280;18343;50.152;8.182;2023-11-18T04:14:31;98232.13;;;3.06;100.00
31771;BME280;18343;50.152;8.182;2023-11-18T04:17:16;98227.66;;;3.06;100.00
31771;BME280;18343;50.152;8.182;2023-11-18T04:20:01;98239.72;;;3.11;100.00
31771;BME280;18343;50.152;8.182;2023-11-18T04:22:47;98234.28;;;3.12;100.00
31771;BME280;18343;50.152;8.182;2023-11-18T04:25:31;98231.75;;;3.11;100.00
31771;BME280;18343;50.152;8.182;2023-11-18T04:28:16;98226.44;;;3.11;100.00
31771;BME280;18343;50.152;8.182;2023-11-18T04:31:01;98233.91;;;3.17;100.00
31771;BME280;18343;50.152;8.182;2023-11-18T04:33:46;98235.59;;;3.18;100.00
31771;BME280;18343;50.152;8.182;2023-11-18T04:36:31;98237.53;;;3.16;100.00
31771;BME280;18343;50.152;8.182;2023-11-18T04:39:24;98241.88;;;3.17;100.00
31771;BME280;18343;50.152;8.182;2023-11-18T04:42:08;98249.50;;;3.21;100.00
31771;BME280;18343;50.152;8.182;2023-11-18T04:44:53;98253.59;;;3.25;100.00
31771;BME280;18343;50.152;8.182;2023-11-18T04:47:37;98254.31;;;3.27;100.00
31771;BME280;18343;50.152;8.182;2023-11-18T04:50:23;98258.63;;;3.28;100.00
31771;BME280;18343;50.152;8.182;2023-11-18T04:53:08;98253.78;;;3.33;100.00
31771;BME280;18343;50.152;8.182;2023-11-18T04:55:54;98246.38;;;3.37;100.00
31771;BME280;18343;50.152;8.182;2023-11-18T04:58:39;98241.06;;;3.37;100.00
31771;BME280;18343;50.152;8.182;2023-11-18T05:01:24;98244.44;;;3.39;100.00
31771;BME280;18343;50.152;8.182;2023-11-18T05:04:09;98236.22;;;3.42;100.00
31771;BME280;18343;50.152;8.182;2023-11-18T05:06:53;98222.66;;;3.45;100.00
31771;BME280;18343;50.152;8.182;2023-11-18T05:09:38;98226.88;;;3.48;100.00
31771;BME280;18343;50.152;8.182;2023-11-18T05:12:24;98216.84;;;3.51;100.00
31771;BME280;18343;50.152;8.182;2023-11-18T05:15:09;98215.31;;;3.58;100.00
31771;BME280;18343;50.152;8.182;2023-11-18T05:17:54;98217.47;;;3.64;100.00
31771;BME280;18343;50.152;8.182;2023-11-18T05:20:39;98219.75;;;3.69;100.00
31771;BME280;18343;50.152;8.182;2023-11-18T05:23:24;98213.06;;;3.74;100.00
31771;BME280;18343;50.152;8.182;2023-11-18T05:26:08;98204.56;;;3.81;100.00
31771;BME280;18343;50.152;8.182;2023-11-18T05:28:54;98193.25;;;3.88;100.00
31771;BME280;18343;50.152;8.182;2023-11-18T05:31:39;98185.72;;;3.93;100.00
31771;BME280;18343;50.152;8.182;2023-11-18T05:34:24;98193.88;;;4.01;100.00
31771;BME280;18343;50.152;8.182;2023-11-18T05:37:08;98190.81;;;4.06;100.00
31771;BME280;18343;50.152;8.182;2023-11-18T05:39:53;98197.00;;;4.06;100.00
31771;BME280;18343;50.152;8.182;2023-11-18T05:42:37;98193.34;;;4.07;100.00
31771;BME280;18343;50.152;8.182;2023-11-18T05:45:23;98191.25;;;4.11;100.00
31771;BME280;18343;50.152;8.182;2023-11-18T05:48:08;98192.41;;;4.18;100.00
31771;BME280;18343;50.152;8.182;2023-11-18T05:50:52;98185.44;;;4.27;100.00
31771;BME280;18343;50.152;8.182;2023-11-18T05:53:40;98191.78;;;4.35;100.00
31771;BME280;18343;50.152;8.182;2023-11-18T05:56:26;98195.44;;;4.44;100.00
31771;BME280;18343;50.152;8.182;2023-11-18T05:59:10;98199.38;;;4.50;100.00
31771;BME280;18343;50.152;8.182;2023-11-18T06:01:56;98191.81;;;4.55;100.00
31771;BME280;18343;50.152;8.182;2023-11-18T06:04:41;98185.69;;;4.64;100.00
31771;BME280;18343;50.152;8.182;2023-11-18T06:07:26;98198.56;;;4.68;100.00
31771;BME280;18343;50.152;8.182;2023-11-18T06:10:11;98191.28;;;4.70;100.00
31771;BME280;18343;50.152;8.182;2023-11-18T06:12:56;98197.19;;;4.74;100.00
31771;BME280;18343;50.152;8.182;2023-11-18T06:15:40;98186.97;;;4.79;100.00
31771;BME280;18343;50.152;8.182;2023-11-18T06:18:26;98189.09;;;4.85;100.00
31771;BME280;18343;50.152;8.182;2023-11-18T06:21:12;98180.25;;;4.85;100.00
31771;BME280;18343;50.152;8.182;2023-11-18T06:23:58;98173.09;;;4.85;100.00
31771;BME280;18343;50.152;8.182;2023-11-18T06:26:42;98183.19;;;4.91;100.00
31771;BME280;18343;50.152;8.182;2023-11-18T06:29:27;98185.56;;;4.94;100.00
31771;BME280;18343;50.152;8.182;2023-11-18T06:32:30;98188.22;;;4.94;100.00
31771;BME280;18343;50.152;8.182;2023-11-18T06:35:16;98184.31;;;4.98;100.00
31771;BME280;18343;50.152;8.182;2023-11-18T06:38:01;98190.06;;;5.03;100.00
31771;BME280;18343;50.152;8.182;2023-11-18T06:40:45;98198.34;;;5.10;100.00
31771;BME280;18343;50.152;8.182;2023-11-18T06:43:30;98204.97;;;5.16;100.00
31771;BME280;18343;50.152;8.182;2023-11-18T06:46:15;98202.00;;;5.19;100.00
31771;BME280;18343;50.152;8.182;2023-11-18T06:49:00;98197.22;;;5.22;100.00
31771;BME280;18343;50.152;8.182;2023-11-18T06:51:46;98198.78;;;5.15;100.00
31771;BME280;18343;50.152;8.182;2023-11-18T06:54:31;98201.31;;;5.17;100.00
31771;BME280;18343;50.152;8.182;2023-11-18T06:57:15;98199.03;;;5.22;100.00
31771;BME280;18343;50.152;8.182;2023-11-18T07:00:00;98190.75;;;5.25;100.00
31771;BME280;18343;50.152;8.182;2023-11-18T07:02:45;98188.66;;;5.28;100.00
31771;BME280;18343;50.152;8.182;2023-11-18T07:05:30;98190.91;;;5.33;100.00
31771;BME280;18343;50.152;8.182;2023-11-18T07:08:16;98189.38;;;5.40;100.00
31771;BME280;18343;50.152;8.182;2023-11-18T07:11:02;98175.88;;;5.41;100.00
31771;BME280;18343;50.152;8.182;2023-11-18T07:13:48;98177.44;;;5.44;100.00
31771;BME280;18343;50.152;8.182;2023-11-18T07:16:33;98174.44;;;5.47;100.00
31771;BME280;18343;50.152;8.182;2023-11-18T07:19:17;98176.16;;;5.38;100.00
31771;BME280;18343;50.152;8.182;2023-11-18T07:22:02;98179.41;;;5.42;100.00
31771;BME280;18343;50.152;8.182;2023-11-18T07:24:48;98189.09;;;5.43;100.00
31771;BME280;18343;50.152;8.182;2023-11-18T07:27:34;98199.19;;;5.39;100.00
31771;BME280;18343;50.152;8.182;2023-11-18T07:30:19;98203.69;;;5.39;100.00
31771;BME280;18343;50.152;8.182;2023-11-18T07:33:04;98207.06;;;5.41;100.00
31771;BME280;18343;50.152;8.182;2023-11-18T07:35:48;98202.41;;;5.43;100.00
31771;BME280;18343;50.152;8.182;2023-11-18T07:38:33;98195.97;;;5.46;100.00
31771;BME280;18343;50.152;8.182;2023-11-18T07:41:20;98199.63;;;5.44;100.00
31771;BME280;18343;50.152;8.182;2023-11-18T07:44:05;98201.00;;;5.49;100.00
31771;BME280;18343;50.152;8.182;2023-11-18T07:46:50;98204.06;;;5.54;100.00
31771;BME280;18343;50.152;8.182;2023-11-18T07:49:34;98204.91;;;5.54;100.00
31771;BME280;18343;50.152;8.182;2023-11-18T07:52:19;98220.66;;;5.57;100.00
31771;BME280;18343;50.152;8.182;2023-11-18T07:55:05;98215.88;;;5.61;100.00
31771;BME280;18343;50.152;8.182;2023-11-18T07:57:52;98211.38;;;5.61;100.00
31771;BME280;18343;50.152;8.182;2023-11-18T08:00:37;98210.94;;;5.66;100.00
31771;BME280;18343;50.152;8.182;2023-11-18T08:03:21;98215.16;;;5.68;100.00
31771;BME280;18343;50.152;8.182;2023-11-18T08:06:07;98205.19;;;5.70;100.00
31771;BME280;18343;50.152;8.182;2023-11-18T08:08:51;98201.22;;;5.74;100.00
31771;BME280;18343;50.152;8.182;2023-11-18T08:11:37;98216.53;;;5.82;100.00
31771;BME280;18343;50.152;8.182;2023-11-18T08:14:23;98226.22;;;5.83;100.00
31771;BME280;18343;50.152;8.182;2023-11-18T08:17:08;98226.22;;;5.83;100.00
31771;BME280;18343;50.152;8.182;2023-11-18T08:19:52;98220.88;;;5.83;100.00
31771;BME280;18343;50.152;8.182;2023-11-18T08:22:37;98212.03;;;5.83;100.00
31771;BME280;18343;50.152;8.182;2023-11-18T08:25:22;98216.53;;;5.82;100.00
31771;BME280;18343;50.152;8.182;2023-11-18T08:28:07;98209.66;;;5.79;100.00
31771;BME280;18343;50.152;8.182;2023-11-18T08:30:53;98209.66;;;5.79;100.00
31771;BME280;18343;50.152;8.182;2023-11-18T08:33:38;98215.69;;;5.82;100.00
31771;BME280;18343;50.152;8.182;2023-11-18T08:36:23;98204.72;;;5.85;100.00
31771;BME280;18343;50.152;8.182;2023-11-18T08:39:08;98199.53;;;5.83;100.00
31771;BME280;18343;50.152;8.182;2023-11-18T08:41:52;98187.72;;;5.86;100.00
31771;BME280;18343;50.152;8.182;2023-11-18T08:44:38;98187.19;;;5.92;100.00
31771;BME280;18343;50.152;8.182;2023-11-18T08:47:24;98182.69;;;5.92;100.00
31771;BME280;18343;50.152;8.182;2023-11-18T08:50:09;98171.47;;;5.89;100.00
31771;BME280;18343;50.152;8.182;2023-11-18T08:52:54;98187.59;;;5.87;100.00
31771;BME280;18343;50.152;8.182;2023-11-18T08:55:39;98184.34;;;5.84;100.00
31771;BME280;18343;50.152;8.182;2023-11-18T08:58:23;98191.53;;;5.83;100.00
31771;BME280;18343;50.152;8.182;2023-11-18T09:01:08;98188.84;;;5.83;100.00
31771;BME280;18343;50.152;8.182;2023-11-18T09:03:54;98195.72;;;5.86;100.00
31771;BME280;18343;50.152;8.182;2023-11-18T09:06:39;98179.56;;;5.87;100.00
31771;BME280;18343;50.152;8.182;2023-11-18T09:09:23;98185.34;;;5.83;100.00
31771;BME280;18343;50.152;8.182;2023-11-18T09:12:08;98183.09;;;5.88;100.00
31771;BME280;18343;50.152;8.182;2023-11-18T09:14:53;98197.28;;;5.88;100.00
31771;BME280;18343;50.152;8.182;2023-11-18T09:17:37;98196.03;;;5.83;100.00
31771;BME280;18343;50.152;8.182;2023-11-18T09:20:23;98187.31;;;5.90;100.00
31771;BME280;18343;50.152;8.182;2023-11-18T09:23:08;98178.19;;;5.93;100.00
31771;BME280;18343;50.152;8.182;2023-11-18T09:25:53;98179.44;;;5.98;100.00
31771;BME280;18343;50.152;8.182;2023-11-18T09:28:38;98177.16;;;6.03;100.00
31771;BME280;18343;50.152;8.182;2023-11-18T09:31:23;98178.31;;;6.01;100.00
31771;BME280;18343;50.152;8.182;2023-11-18T09:34:07;98177.69;;;6.07;100.00
31771;BME280;18343;50.152;8.182;2023-11-18T09:36:53;98186.13;;;6.12;100.00
31771;BME280;18343;50.152;8.182;2023-11-18T09:39:38;98184.84;;;6.16;100.00
31771;BME280;18343;50.152;8.182;2023-11-18T09:42:24;98195.94;;;6.21;100.00
31771;BME280;18343;50.152;8.182;2023-11-18T09:45:08;98191.53;;;6.30;100.00
31771;BME280;18343;50.152;8.182;2023-11-18T09:47:53;98191.38;;;6.31;100.00
31771;BME280;18343;50.152;8.182;2023-11-18T09:50:39;98187.56;;;6.34;100.00
31771;BME280;18343;50.152;8.182;2023-11-18T09:53:27;98188.97;;;6.38;100.00
31771;BME280;18343;50.152;8.182;2023-11-18T09:56:23;98186.28;;;6.38;100.00
31771;BME280;18343;50.152;8.182;2023-11-18T09:59:16;98186.34;;;6.28;100.00
31771;BME280;18343;50.152;8.182;2023-11-18T10:02:03;98187.78;;;6.23;100.00
31771;BME280;18343;50.152;8.182;2023-11-18T10:04:49;98184.44;;;6.11;100.00
31771;BME280;18343;50.152;8.182;2023-11-18T10:07:38;98199.31;;;6.14;100.00
31771;BME280;18343;50.152;8.182;2023-11-18T10:10:24;98200.16;;;6.14;100.00
31771;BME280;18343;50.152;8.182;2023-11-18T10:13:09;98193.69;;;6.17;100.00
31771;BME280;18343;50.152;8.182;2023-11-18T10:15:54;98193.88;;;6.05;100.00
31771;BME280;18343;50.152;8.182;2023-11-18T10:18:39;98196.53;;;6.05;100.00
31771;BME280;18343;50.152;8.182;2023-11-18T10:21:35;98211.84;;;6.13;100.00
31771;BME280;18343;50.152;8.182;2023-11-18T10:24:19;98201.13;;;6.23;100.00
31771;BME280;18343;50.152;8.182;2023-11-18T10:27:06;98190.53;;;6.31;100.00
31771;BME280;18343;50.152;8.182;2023-11-18T10:29:57;98192.41;;;6.21;100.00
31771;BME280;18343;50.152;8.182;2023-11-18T10:32:42;98188.91;;;6.20;100.00
31771;BME280;18343;50.152;8.182;2023-11-18T10:35:26;98173.59;;;6.22;100.00
31771;BME280;18343;50.152;8.182;2023-11-18T10:38:11;98186.50;;;6.27;100.00
31771;BME280;18343;50.152;8.182;2023-11-18T10:40:58;98172.69;;;6.31;100.00
31771;BME280;18343;50.152;8.182;2023-11-18T10:43:44;98169.56;;;6.36;100.00
31771;BME280;18343;50.152;8.182;2023-11-18T10:46:28;98150.88;;;6.36;100.00
31771;BME280;18343;50.152;8.182;2023-11-18T10:49:13;98148.06;;;6.37;100.00
31771;BME280;18343;50.152;8.182;2023-11-18T10:52:01;98148.75;;;6.39;100.00
31771;BME280;18343;50.152;8.182;2023-11-18T10:54:50;98151.41;;;6.39;100.00
31771;BME280;18343;50.152;8.182;2023-11-18T10:57:35;98146.28;;;6.28;100.00
31771;BME280;18343;50.152;8.182;2023-11-18T11:00:21;98144.91;;;6.24;100.00
31771;BME280;18343;50.152;8.182;2023-11-18T11:03:07;98141.25;;;6.25;100.00
31771;BME280;18343;50.152;8.182;2023-11-18T11:05:52;98131.28;;;6.18;100.00
31771;BME280;18343;50.152;8.182;2023-11-18T11:08:37;98119.78;;;6.17;100.00
31771;BME280;18343;50.152;8.182;2023-11-18T11:11:24;98118.19;;;6.24;100.00
31771;BME280;18343;50.152;8.182;2023-11-18T11:14:12;98109.78;;;6.19;100.00
31771;BME280;18343;50.152;8.182;2023-11-18T11:17:03;98111.59;;;5.82;100.00
31771;BME280;18343;50.152;8.182;2023-11-18T11:19:53;98109.47;;;5.95;100.00
31771;BME280;18343;50.152;8.182;2023-11-18T11:22:51;98103.78;;;6.07;100.00
31771;BME280;18343;50.152;8.182;2023-11-18T11:25:46;98095.19;;;6.14;100.00
31771;BME280;18343;50.152;8.182;2023-11-18T11:28:40;98076.06;;;6.18;100.00
31771;BME280;18343;50.152;8.182;2023-11-18T11:31:34;98069.44;;;6.22;100.00
31771;BME280;18343;50.152;8.182;2023-11-18T11:34:21;98058.19;;;6.19;100.00
31771;BME280;18343;50.152;8.182;2023-11-18T11:37:09;98052.63;;;6.12;100.00
31771;BME280;18343;50.152;8.182;2023-11-18T11:39:55;98059.94;;;6.10;100.00
31771;BME280;18343;50.152;8.182;2023-11-18T11:42:41;98066.66;;;6.14;100.00
31771;BME280;18343;50.152;8.182;2023-11-18T11:45:28;98064.13;;;6.13;100.00
31771;BME280;18343;50.152;8.182;2023-11-18T11:48:13;98055.28;;;6.12;100.00
31771;BME280;18343;50.152;8.182;2023-11-18T11:51:09;98050.88;;;6.21;100.00
31771;BME280;18343;50.152;8.182;2023-11-18T11:54:02;98046.94;;;6.25;100.00
31771;BME280;18343;50.152;8.182;2023-11-18T11:56:49;98047.47;;;6.28;100.00
31771;BME280;18343;50.152;8.182;2023-11-18T11:59:56;98035.63;;;6.31;100.00
31771;BME280;18343;50.152;8.182;2023-11-18T12:02:48;98029.69;;;6.37;100.00
31771;BME280;18343;50.152;8.182;2023-11-18T12:05:33;98020.81;;;6.36;100.00
31771;BME280;18343;50.152;8.182;2023-11-18T12:08:19;98022.34;;;6.39;100.00
31771;BME280;18343;50.152;8.182;2023-11-18T12:11:05;98017.00;;;6.39;100.00
31771;BME280;18343;50.152;8.182;2023-11-18T12:14:08;98018.44;;;6.33;100.00
31771;BME280;18343;50.152;8.182;2023-11-18T12:17:04;98016.78;;;6.32;100.00
31771;BME280;18343;50.152;8.182;2023-11-18T12:19:50;98029.44;;;6.30;100.00
31771;BME280;18343;50.152;8.182;2023-11-18T12:23:03;98026.09;;;6.28;100.00
31771;BME280;18343;50.152;8.182;2023-11-18T12:25:51;98017.06;;;6.29;100.00
31771;BME280;18343;50.152;8.182;2023-11-18T12:28:36;98022.59;;;6.28;100.00
31771;BME280;18343;50.152;8.182;2023-11-18T12:31:39;98017.91;;;6.30;100.00
31771;BME280;18343;50.152;8.182;2023-11-18T12:34:24;98020.75;;;6.28;100.00
31771;BME280;18343;50.152;8.182;2023-11-18T12:37:57;98000.28;;;6.19;100.00
31771;BME280;18343;50.152;8.182;2023-11-18T12:40:56;97993.28;;;6.18;100.00
31771;BME280;18343;50.152;8.182;2023-11-18T12:43:49;97981.69;;;6.27;100.00
31771;BME280;18343;50.152;8.182;2023-11-18T12:46:50;97974.19;;;6.31;100.00
31771;BME280;18343;50.152;8.182;2023-11-18T12:49:38;97974.56;;;6.36;100.00
31771;BME280;18343;50.152;8.182;2023-11-18T12:52:23;97962.91;;;6.37;100.00
31771;BME280;18343;50.152;8.182;2023-11-18T12:55:08;97961.59;;;6.41;100.00
31771;BME280;18343;50.152;8.182;2023-11-18T12:57:59;97953.44;;;6.42;100.00
31771;BME280;18343;50.152;8.182;2023-11-18T13:00:44;97953.44;;;6.42;100.00
31771;BME280;18343;50.152;8.182;2023-11-18T13:03:28;97947.94;;;6.44;100.00
31771;BME280;18343;50.152;8.182;2023-11-18T13:06:13;97939.78;;;6.45;100.00
31771;BME280;18343;50.152;8.182;2023-11-18T13:08:58;97937.09;;;6.45;100.00
31771;BME280;18343;50.152;8.182;2023-11-18T13:11:44;97925.41;;;6.47;100.00
31771;BME280;18343;50.152;8.182;2023-11-18T13:14:32;97924.13;;;6.51;100.00
31771;BME280;18343;50.152;8.182;2023-11-18T13:17:17;97916.63;;;6.54;100.00
31771;BME280;18343;50.152;8.182;2023-11-18T13:20:14;97902.75;;;6.51;100.00
31771;BME280;18343;50.152;8.182;2023-11-18T13:22:59;97899.63;;;6.55;100.00
31771;BME280;18343;50.152;8.182;2023-11-18T13:25:44;97905.81;;;6.56;100.00
31771;BME280;18343;50.152;8.182;2023-11-18T13:28:29;97904.63;;;6.58;100.00
31771;BME280;18343;50.152;8.182;2023-11-18T13:31:15;97897.28;;;6.60;100.00
31771;BME280;18343;50.152;8.182;2023-11-18T13:33:59;97888.44;;;6.60;100.00
31771;BME280;18343;50.152;8.182;2023-11-18T13:36:44;97880.41;;;6.60;100.00
31771;BME280;18343;50.152;8.182;2023-11-18T13:39:29;97870.25;;;6.63;100.00
31771;BME280;18343;50.152;8.182;2023-11-18T13:42:22;97875.13;;;6.68;100.00
31771;BME280;18343;50.152;8.182;2023-11-18T13:45:12;97876.97;;;6.67;100.00
31771;BME280;18343;50.152;8.182;2023-11-18T13:48:00;97871.47;;;6.69;100.00
31771;BME280;18343;50.152;8.182;2023-11-18T13:50:44;97878.50;;;6.70;100.00
31771;BME280;18343;50.152;8.182;2023-11-18T13:53:29;97875.34;;;6.74;100.00
31771;BME280;18343;50.152;8.182;2023-11-18T13:56:18;97880.22;;;6.79;100.00
31771;BME280;18343;50.152;8.182;2023-11-18T13:59:04;97867.53;;;6.81;100.00
31771;BME280;18343;50.152;8.182;2023-11-18T14:01:48;97874.03;;;6.78;100.00
31771;BME280;18343;50.152;8.182;2023-11-18T14:04:36;97868.03;;;6.85;100.00
31771;BME280;18343;50.152;8.182;2023-11-18T14:07:23;97868.63;;;6.70;100.00
31771;BME280;18343;50.152;8.182;2023-11-18T14:10:08;97853.81;;;6.76;100.00
31771;BME280;18343;50.152;8.182;2023-11-18T14:13:01;97860.53;;;6.80;100.00
31771;BME280;18343;50.152;8.182;2023-11-18T14:15:46;97874.03;;;6.78;100.00
31771;BME280;18343;50.152;8.182;2023-11-18T14:18:31;97861.84;;;6.84;100.00
31771;BME280;18343;50.152;8.182;2023-11-18T14:21:20;97841.81;;;6.88;100.00
31771;BME280;18343;50.152;8.182;2023-11-18T14:24:06;97846.34;;;6.88;100.00
31771;BME280;18343;50.152;8.182;2023-11-18T14:26:50;97845.50;;;6.87;100.00
31771;BME280;18343;50.152;8.182;2023-11-18T14:29:35;97840.84;;;6.89;100.00
31771;BME280;18343;50.152;8.182;2023-11-18T14:32:19;97841.00;;;6.88;100.00
31771;BME280;18343;50.152;8.182;2023-11-18T14:35:05;97845.03;;;6.92;100.00
31771;BME280;18343;50.152;8.182;2023-11-18T14:37:51;97837.31;;;6.89;100.00
31771;BME280;18343;50.152;8.182;2023-11-18T14:40:36;97841.81;;;6.88;100.00